Observations for FAIRFORD RAF, United Kingdom (EGVA)

EGVA 201856Z AUTO 22010KT M M OVC019 10/07 A3011 RMK AO2 SLP201 T00980067 RVRNO $   
EGVA 201806Z AUTO 21012KT M M OVC029 10/06 A3009 RMK AO2 SLP194 RVRNO $
EGVA 201756Z AUTO 21011KT M M OVC031 10/06 A3009 RMK AO2 SLP194 T00990064 10121 20098 53005 RVRNO $ 
EGVA 201726Z AUTO 21012KT M M BKN029 10/06 A3008 RMK AO2 SLPNO RVRNO $
EGVA 201736Z AUTO 21010KT M M OVC030 10/06 A3009 RMK AO2 SLPNO RVRNO $
EGVA 201656Z AUTO 22011KT M M SCT035 10/06 A3008 RMK AO2 SLPNO T01030063 RVRNO $
EGVA 201636Z AUTO 22013KT M M SCT035 SCT042 BKN065 11/06 A3008 RMK AO2 SLPNO RVRNO $
EGVA 201556Z AUTO 22013KT M M SCT044 11/06 A3008 RMK AO2 SLPNO T01120059 RVRNO $
EGVA 201501Z AUTO 22014KT M M BKN045 12/06 A3007 RMK AO2 SLPNO RVRNO $
EGVA 201551Z AUTO 22015KT M M SCT044 12/06 A3007 RMK AO2 SLPNO RVRNO $
EGVA 201456Z AUTO 22012KT M M SCT044 12/06 A3008 RMK AO2 SLPNO T01170062 55000 RVRNO $  
EGVA 201401Z AUTO 19012KT 9999 FEW025 SCT038 12/07 A3007 RMK AO2 SLPNO VISNO RWY27 CHINO RWY27 $
EGVA 201356Z AUTO 19011KT 9999 FEW025 BKN038 12/06 A3007 RMK AO2 SLPNO T01150064 VISNO RWY27 CHINO RWY27 $  
EGVA 201256Z AUTO 20015G20KT 9999 OVC041 12/06 A3007 RMK AO2 SLPNO T01150060 VISNO RWY27 CHINO RWY27 $  
EGVA 201206Z AUTO 20014KT 9999 BKN039 11/06 A3008 RMK AO2 SLPNO VISNO RWY27 CHINO RWY27 $
EGVA 201201Z AUTO 20012KT 9999 SCT038 11/06 A3008 RMK AO2 SLPNO VISNO RWY27 CHINO RWY27 $
EGVA 201156Z AUTO 20013G21KT 9999 FEW020 BKN039 11/06 A3008 RMK AO2 SLPNO T01090064 10117 20078 52013 VISNO RWY27 CHINO RWY27 $ 
EGVA 201141Z AUTO 20012G17KT 9999 FEW019 FEW025 SCT034 SCT041 11/07 A3008 RMK AO2 SLP191 VISNO RWY27 CHINO RWY27 $
EGVA 201151Z AUTO 20015G21KT 9999 FEW020 FEW034 BKN041 11/07 A3008 RMK AO2 SLPNO VISNO RWY27 CHINO RWY27 $
EGVA 201056Z AUTO 20016KT 9999 SCT020 SCT026 SCT037 11/06 A3006 RMK AO2 SLP184 T01130064 VISNO RWY27 CHINO RWY27 $  
EGVA 201041Z AUTO 21014G22KT 9999 BKN020 11/07 A3006 RMK AO2 BKN V SCT SLP184 VISNO RWY27 CHINO RWY27 $
EGVA 201046Z AUTO 21015G22KT 9999 SCT020 11/07 A3006 RMK AO2 SLP184 VISNO RWY27CHINO RWY27 $
EGVA 200956Z AUTO 20015G21KT 9999 CLR 10/06 A3006 RMK AO2 SLP184 T01010064 VISNO RWY27 CHINO RWY27 $
EGVA 200856Z AUTO 20011KT 9999 CLR 09/07 A3004 RMK AO2 SLP178 T00920065 52011 VISNO RWY27 CHINO RWY27 $ 
EGVA 200821Z AUTO 20012KT 9999 SCT017 SCT160 09/07 A3004 RMK AO2 SLP178 VISNO RWY27 CHINO RWY27 $
EGVA 200756Z AUTO 19009KT 9999 BKN016 09/07 A3003 RMK AO2 BKN V SCT SLP175 T00850068 VISNO RWY27 CHINO RWY27 $  
EGVA 200746Z AUTO 20010KT 9999 SCT016 08/07 A3002 RMK AO2 SLP171 VISNO RWY27 CHINO RWY27 $
EGVA 200751Z AUTO 20009KT 9999 BKN016 08/07 A3003 RMK AO2 BKN V SCT SLP175 VISNO RWY27 CHINO RWY27 $
EGVA 200656Z AUTO 20008KT 9999 BKN015 08/07 A3001 RMK AO2 SLPNO T00800071 VISNO RWY27 CHINO RWY27 $ 
EGVA 200630Z AUTO 19009KT 9999 BKN013 OVC019 08/07 A3001 RMK AO2 SLP168 VISNO RWY27 CHINO RWY27 $
EGVA 200639Z AUTO 19009KT 9999 SCT012 BKN019 08/07 A3001 RMK AO2 CIG 013V019 BKN V OVC SLPNO VISNO RWY27 CHINO RWY27 $
EGVA 200644Z AUTO 19008KT 9999 BKN015 08/07 A3001 RMK AO2 CIG 013V019 SLPNO VISNO RWY27 CHINO RWY27 $
EGVA 200619Z AUTO 20009KT 9999 BKN014 BKN023 08/07 A3001 RMK AO2 CIG 014V023 BKN014 V SCT SLPNO VISNO RWY27 CHINO RWY27 $
EGVA 200604Z AUTO 19010KT 9999 SCT021 BKN029 08/07 A3001 RMK AO2 CIG 022V033 SLPNO VISNO RWY27 CHINO RWY27 $
EGVA 200556Z AUTO 20010KT 9999 SCT026 SCT033 08/07 A3001 RMK AO2 SLP168 T00800066 10080 20073 55001 VISNO RWY27 CHINO RWY27 $   
EGVA 200559Z AUTO 20011KT 9999 SCT024 BKN033 08/07 A3001 RMK AO2 SLPNO VISNO RWY27 CHINO RWY27 $
EGVA 192256Z AUTO 19011KT 9999 CLR 07/05 A3004 RMK AO2 SLP178 T00730051 VISNO RWY27 CHINO RWY27 $   
EGVA 192156Z AUTO 20011KT 9999 CLR 07/05 A3004 RMK AO2 SLP178 T00730051 VISNO RWY27 CHINO RWY27 $   
EGVA 192056Z AUTO 19011KT 9999 SCT095 08/05 A3004 RMK AO2 SLP178 T00760051 VISNO RWY27 CHINO RWY27 $
EGVA 191956Z AUTO 19011KT 9999 CLR 07/05 A3003 RMK AO2 SLP176 T00730046 VISNO RWY27 CHINO RWY27 $   
EGVA 191911Z AUTO 20010KT 9999 SCT048 BKN110 08/04 A3003 RMK AO2 SLP176 VISNO RWY27 CHINO RWY27 $